createdAt,value
2022-11-01T00:00:44.503Z,47.40
2022-11-01T00:05:46.491Z,41.10
2022-11-01T00:10:49.409Z,39.00
2022-11-01T00:15:51.396Z,38.93
2022-11-01T00:20:53.766Z,41.10
2022-11-01T00:26:00.533Z,38.70
2022-11-01T00:31:02.357Z,33.73
2022-11-01T00:36:04.237Z,35.77
2022-11-01T00:41:08.312Z,36.60
2022-11-01T00:46:10.571Z,38.23
2022-11-01T00:51:12.874Z,37.73
2022-11-01T00:56:16.462Z,38.70
2022-11-01T01:01:18.560Z,34.73
2022-11-01T01:06:20.738Z,32.97
2022-11-01T01:11:23.716Z,38.77
2022-11-01T01:16:25.723Z,37.20
2022-11-01T01:21:28.109Z,44.87
2022-11-01T01:26:31.680Z,32.27
2022-11-01T01:31:33.592Z,36.77
2022-11-01T01:36:35.433Z,37.80
2022-11-01T01:41:38.549Z,33.30
2022-11-01T01:46:40.187Z,34.33
2022-11-01T01:51:42.312Z,33.30
2022-11-01T01:56:45.835Z,30.03
2022-11-01T02:01:48.031Z,35.13
2022-11-01T02:06:50.284Z,35.67
2022-11-01T02:11:54.038Z,34.83
2022-11-01T02:17:05.584Z,41.53
2022-11-01T02:22:16.860Z,43.20
2022-11-01T02:27:28.981Z,40.93
2022-11-01T02:32:39.179Z,45.43
2022-11-01T02:37:48.747Z,43.50
2022-11-01T02:42:56.401Z,41.73
2022-11-01T02:48:01.720Z,39.87
2022-11-01T02:53:04.614Z,45.70
2022-11-01T02:58:15.347Z,40.03
2022-11-01T03:03:22.827Z,40.83
2022-11-01T03:08:28.410Z,30.83
2022-11-01T03:13:44.070Z,34.10
2022-11-01T03:18:56.508Z,34.37
2022-11-01T03:24:04.629Z,29.43
2022-11-01T03:29:10.287Z,32.43
2022-11-01T03:34:16.319Z,29.07
2022-11-01T03:39:22.894Z,30.20
2022-11-01T03:44:27.127Z,43.33
2022-11-01T03:49:30.570Z,39.50
2022-11-01T03:54:32.270Z,38.83
2022-11-01T03:59:34.290Z,42.87
2022-11-01T04:04:37.619Z,39.60
2022-11-01T04:09:39.575Z,37.10
2022-11-01T04:14:41.574Z,41.47
2022-11-01T04:19:44.771Z,41.70
2022-11-01T04:24:46.935Z,41.90
2022-11-01T04:29:50.382Z,46.33
2022-11-01T04:34:54.044Z,44.43
2022-11-01T04:39:56.095Z,40.50
2022-11-01T04:44:58.105Z,45.30
2022-11-01T04:50:01.932Z,45.30
2022-11-01T04:55:04.485Z,42.30
2022-11-01T05:00:08.049Z,42.03
2022-11-01T05:05:11.833Z,56.17
2022-11-01T05:10:13.880Z,46.23
2022-11-01T05:15:16.070Z,39.30
2022-11-01T05:20:19.167Z,50.60
2022-11-01T05:25:20.945Z,43.37
2022-11-01T05:30:23.193Z,51.60
2022-11-01T05:35:27.842Z,48.63
2022-11-01T05:40:30.538Z,49.10
2022-11-01T05:45:32.565Z,58.03
2022-11-01T05:50:36.065Z,49.17
2022-11-01T05:55:38.652Z,49.97
2022-11-01T06:00:40.945Z,49.23
2022-11-01T06:05:44.316Z,53.13
2022-11-01T06:10:46.486Z,51.47
2022-11-01T06:15:48.495Z,54.47
2022-11-01T06:20:52.230Z,60.77
2022-11-01T06:26:00.493Z,52.83
2022-11-01T06:36:12.309Z,53.90
2022-11-01T06:41:14.267Z,51.97
2022-11-01T06:46:16.126Z,55.20
2022-11-01T06:51:19.572Z,61.50
2022-11-01T06:56:21.529Z,53.30
2022-11-01T07:01:23.643Z,43.13
2022-11-01T07:06:27.231Z,48.57
2022-11-01T07:11:31.756Z,48.40
2022-11-01T07:16:34.162Z,55.83
2022-11-01T07:21:38.218Z,55.47
2022-11-01T07:26:40.237Z,57.53
2022-11-01T07:31:41.927Z,52.50
2022-11-01T07:36:45.569Z,49.67
2022-11-01T07:41:47.636Z,51.77
2022-11-01T07:46:49.672Z,50.70
2022-11-01T07:51:53.006Z,48.30
2022-11-01T07:56:55.118Z,50.70
2022-11-01T08:01:57.123Z,51.17
2022-11-01T08:07:00.795Z,48.50
2022-11-01T08:12:02.743Z,47.27
2022-11-01T08:17:04.687Z,45.03
2022-11-01T08:22:08.132Z,43.87
2022-11-01T08:27:09.732Z,41.37
2022-11-01T08:32:11.389Z,40.20
2022-11-01T08:37:15.287Z,37.83
2022-11-01T08:42:17.508Z,32.50
2022-11-01T08:47:19.203Z,31.00
2022-11-01T08:52:22.200Z,26.80
2022-11-01T08:57:24.516Z,23.23
2022-11-01T09:02:26.823Z,21.20
2022-11-01T09:07:30.031Z,17.90
2022-11-01T09:12:32.061Z,15.97
2022-11-01T09:17:33.992Z,17.87
2022-11-01T09:22:37.531Z,19.30
2022-11-01T09:27:39.743Z,17.90
2022-11-01T09:32:41.440Z,12.77
2022-11-01T09:37:44.828Z,13.37
2022-11-01T09:42:48.574Z,18.80
2022-11-01T09:47:53.988Z,15.47
2022-11-01T09:52:58.077Z,14.20
2022-11-01T09:58:07.318Z,13.63
2022-11-01T10:03:29.943Z,19.10
2022-11-01T10:08:45.718Z,13.13
2022-11-01T10:13:58.423Z,14.13
2022-11-01T10:19:04.420Z,17.07
2022-11-01T10:24:17.979Z,12.83
2022-11-01T10:29:25.121Z,15.50
2022-11-01T10:34:35.992Z,20.33
2022-11-01T10:39:54.932Z,16.00
2022-11-01T10:45:06.096Z,12.83
2022-11-01T10:50:16.889Z,8.73
2022-11-01T10:55:27.052Z,10.37
2022-11-01T11:00:31.044Z,6.83
2022-11-01T11:05:33.458Z,6.67
2022-11-01T11:10:37.245Z,8.90
2022-11-01T11:15:44.498Z,8.10
2022-11-01T11:20:51.141Z,7.70
2022-11-01T11:26:01.538Z,10.63
2022-11-01T11:31:14.436Z,5.40
2022-11-01T11:36:16.715Z,9.33
2022-11-01T11:41:31.832Z,6.20
2022-11-01T11:46:34.782Z,6.97
2022-11-01T11:51:38.346Z,5.20
2022-11-01T11:56:42.001Z,6.47
2022-11-01T12:01:46.224Z,4.70
2022-11-01T12:06:48.154Z,9.13
2022-11-01T12:11:51.777Z,8.60
2022-11-01T12:16:53.854Z,4.93
2022-11-01T12:21:59.352Z,5.37
2022-11-01T12:27:07.654Z,5.37
2022-11-01T12:32:15.326Z,6.97
2022-11-01T12:37:21.692Z,7.80
2022-11-01T12:42:29.461Z,5.83
2022-11-01T12:47:37.574Z,4.67
2022-11-01T12:52:45.051Z,5.57
2022-11-01T12:57:48.807Z,6.07
2022-11-01T13:03:05.345Z,6.10
2022-11-01T13:08:14.571Z,5.80
2022-11-01T13:13:26.079Z,6.40
2022-11-01T13:18:38.292Z,5.07
2022-11-01T13:23:45.771Z,7.60
2022-11-01T13:28:57.678Z,7.17
2022-11-01T13:34:11.783Z,3.77
2022-11-01T13:39:24.776Z,5.37
2022-11-01T13:44:34.425Z,8.00
2022-11-01T13:49:59.681Z,3.83
2022-11-01T13:55:15.069Z,6.07
2022-11-01T14:00:46.344Z,7.07
2022-11-01T14:11:46.980Z,5.40
2022-11-01T14:16:50.515Z,4.70
2022-11-01T14:21:53.526Z,8.43
2022-11-01T14:27:19.863Z,4.97
2022-11-01T14:32:25.939Z,7.67
2022-11-01T14:37:35.983Z,4.60
2022-11-01T14:42:44.024Z,3.43
2022-11-01T14:47:48.465Z,4.87
2022-11-01T14:52:57.469Z,7.70
2022-11-01T14:58:20.421Z,7.93
2022-11-01T15:03:24.029Z,8.50
2022-11-01T15:08:30.493Z,8.57
2022-11-01T15:13:36.085Z,12.57
2022-11-01T15:18:44.866Z,4.10
2022-11-01T15:23:49.086Z,7.03
2022-11-01T15:28:54.019Z,5.90
2022-11-01T15:33:59.878Z,7.50
2022-11-01T15:39:16.001Z,5.30
2022-11-01T15:44:23.764Z,8.67
2022-11-01T15:49:30.544Z,3.47
2022-11-01T15:54:40.081Z,4.90
2022-11-01T15:59:51.467Z,4.60
2022-11-01T16:04:56.400Z,6.17
2022-11-01T16:10:00.684Z,6.30
2022-11-01T16:15:06.624Z,5.73
2022-11-01T16:20:30.837Z,7.53
2022-11-01T16:25:35.763Z,6.60
2022-11-01T16:30:44.351Z,5.83
2022-11-01T16:35:49.492Z,6.53
2022-11-01T16:40:55.219Z,5.97
2022-11-01T16:45:58.635Z,6.97
2022-11-01T16:51:03.822Z,10.47
2022-11-01T16:56:35.092Z,11.93
2022-11-01T17:01:35.573Z,7.80
2022-11-01T17:06:39.522Z,7.73
2022-11-01T17:11:45.029Z,6.33
2022-11-01T17:16:51.042Z,10.47
2022-11-01T17:21:55.689Z,9.27
2022-11-01T17:27:01.434Z,8.53
2022-11-01T17:32:03.857Z,7.33
2022-11-01T17:37:07.312Z,10.77
2022-11-01T17:42:10.513Z,11.63
2022-11-01T17:47:14.313Z,10.13
2022-11-01T17:52:17.524Z,8.17
2022-11-01T17:57:20.094Z,8.93
2022-11-01T18:02:22.466Z,7.97
2022-11-01T18:07:35.950Z,7.30
2022-11-01T18:12:42.959Z,9.03
2022-11-01T18:17:55.916Z,8.67
2022-11-01T18:23:05.680Z,9.67
2022-11-01T18:28:12.650Z,8.10
2022-11-01T18:33:23.547Z,11.43
2022-11-01T18:38:32.835Z,6.77
2022-11-01T18:43:36.276Z,8.47
2022-11-01T18:48:38.577Z,7.77
2022-11-01T18:53:42.344Z,7.27
2022-11-01T18:58:44.645Z,9.43
2022-11-01T19:03:46.720Z,6.70
2022-11-01T19:08:52.795Z,6.83
2022-11-01T19:13:57.603Z,9.10
2022-11-01T19:19:00.239Z,8.47
2022-11-01T19:24:16.648Z,9.50
2022-11-01T19:29:21.825Z,8.73
2022-11-01T19:34:26.458Z,6.77
2022-11-01T19:39:32.991Z,8.13
2022-11-01T19:44:36.691Z,5.43
2022-11-01T19:49:42.998Z,9.20
2022-11-01T19:54:50.832Z,8.13
2022-11-01T19:59:53.946Z,7.97
2022-11-01T20:05:00.134Z,6.53
2022-11-01T20:10:06.539Z,10.03
2022-11-01T20:15:09.921Z,6.67
2022-11-01T20:20:13.256Z,7.90
2022-11-01T20:25:17.417Z,5.10
2022-11-01T20:30:20.083Z,7.60
2022-11-01T20:35:22.766Z,5.33
2022-11-01T20:40:27.296Z,7.33
2022-11-01T20:45:29.939Z,5.30
2022-11-01T20:50:32.148Z,5.33
2022-11-01T20:55:36.080Z,4.77
2022-11-01T21:00:38.722Z,5.17
2022-11-01T21:05:42.909Z,7.53
2022-11-01T21:10:46.445Z,6.50
2022-11-01T21:15:48.840Z,6.57
2022-11-01T21:20:50.972Z,4.43
2022-11-01T21:25:56.891Z,4.50
2022-11-01T21:31:15.357Z,4.10
2022-11-01T21:36:28.170Z,6.67
2022-11-01T21:41:40.221Z,5.40
2022-11-01T21:46:48.251Z,4.83
2022-11-01T21:51:51.994Z,3.20
2022-11-01T21:56:56.514Z,5.87
2022-11-01T22:01:59.999Z,3.53
2022-11-01T22:07:04.912Z,3.40
2022-11-01T22:12:08.498Z,3.73
2022-11-01T22:17:10.477Z,7.43
2022-11-01T22:22:12.616Z,6.03
2022-11-01T22:27:16.581Z,7.67
2022-11-01T22:32:18.648Z,6.53
2022-11-01T22:37:21.036Z,6.90
2022-11-01T22:42:25.567Z,8.03
2022-11-01T22:47:28.571Z,7.60
2022-11-01T22:52:32.093Z,6.17
2022-11-01T22:57:42.392Z,5.13
2022-11-01T23:02:44.456Z,7.00
2022-11-01T23:07:48.655Z,5.33
2022-11-01T23:12:58.268Z,6.70
2022-11-01T23:18:07.247Z,6.63
2022-11-01T23:23:15.572Z,6.17
2022-11-01T23:28:19.496Z,4.63
2022-11-01T23:33:23.002Z,5.27
2022-11-01T23:38:35.117Z,5.40
2022-11-01T23:43:40.536Z,6.80
2022-11-01T23:48:44.457Z,4.23
2022-11-01T23:53:49.274Z,6.10
2022-11-01T23:58:56.179Z,5.10
